Погода Украинскоена 2 недели

Республика Дагестан, Россия

22 мая-04 июня
  • 22мая
    Сегодня
    +11°
    +24°
    Ясно и безоблачно
    ВремяПогодаТемператураВлажностьДавлениеВетер, м/сВероятность осадков
    00:00Ясно и безоблачно+13°C69 %765 мм2.6 м/с2 %
    03:00Практически безоблачно+12°C70 %764 мм2.7 м/с2 %
    06:00Ясно и безоблачно+14°C72 %764 мм3.3 м/с2 %
    09:00Облачно с прояснениями+22°C37 %764 мм6.3 м/с2 %
    12:00Практически безоблачно+23°C27 %764 мм7.3 м/с2 %
    15:00Ясно и безоблачно+23°C27 %763 мм7.2 м/с2 %
    18:00Ясно и безоблачно+19°C41 %763 мм5.5 м/с2 %
    21:00Облачно с прояснениями+14°C72 %763 мм3.6 м/с2 %
  • 23мая
    Четверг
    +11°
    +25°
    Ясно и безоблачно
    ВремяПогодаТемператураВлажностьДавлениеВетер, м/сВероятность осадков
    00:00Облачно с прояснениями+13°C79 %762 мм3.0 м/с2 %
    03:00Ясно и безоблачно+12°C83 %762 мм2.7 м/с2 %
    06:00Ясно и безоблачно+14°C65 %762 мм2.3 м/с2 %
    09:00Ясно и безоблачно+22°C31 %762 мм4.4 м/с2 %
    12:00Ясно и безоблачно+24°C21 %761 мм5.6 м/с2 %
    15:00Ясно и безоблачно+25°C21 %761 мм5.9 м/с2 %
    18:00Ясно и безоблачно+22°C41 %761 мм5.4 м/с2 %
    21:00Ясно и безоблачно+16°C68 %762 мм2.7 м/с1 %
  • 24мая
    Пятница
    +13°
    +26°
    Практически безоблачно
    ВремяПогодаТемператураВлажностьДавлениеВетер, м/сВероятность осадков
    00:00Ясно и безоблачно+14°C86 %762 мм2.0 м/с2 %
    03:00Ясно и безоблачно+12°C93 %762 мм2.1 м/с2 %
    06:00Ясно и безоблачно+15°C83 %762 мм2.6 м/с2 %
    09:00Практически безоблачно+23°C50 %763 мм5.9 м/с4 %
    12:00Практически безоблачно+25°C38 %763 мм7.1 м/с19 %
    15:00Практически безоблачно+23°C50 %764 мм7.5 м/с33 %
    18:00Небольшая облачность+20°C72 %765 мм6.2 м/с30 %
    21:00Облачно с прояснениями+16°C64 %766 мм5.6 м/с3 %
  • 25мая
    Суббота
    +14°
    +20°
    Небольшая облачность
    ВремяПогодаТемператураВлажностьДавлениеВетер, м/сВероятность осадков
    00:00Облачно с прояснениями+15°C60 %767 мм5.6 м/с3 %
    03:00Облачно с прояснениями+14°C55 %767 мм5.9 м/с3 %
    06:00Облачно с прояснениями+16°C55 %768 мм7.1 м/с2 %
    09:00Облачно с прояснениями+19°C37 %769 мм10.2 м/с2 %
    12:00Пасмурно, сплошная облачность+19°C31 %768 мм10.1 м/с3 %
    15:00Небольшая облачность+19°C32 %768 мм8.7 м/с2 %
    18:00Облачно с прояснениями+18°C40 %767 мм7.5 м/с3 %
    21:00Облачно с прояснениями+16°C56 %766 мм6.5 м/с2 %
  • 26мая
    Воскресенье
    +11°
    +22°
    Облачно с прояснениями
    ВремяПогодаТемператураВлажностьДавлениеВетер, м/сВероятность осадков
    00:00Небольшая облачность+15°C59 %765 мм6.7 м/с2 %
    03:00Облачно с прояснениями+15°C57 %764 мм7.3 м/с2 %
    06:00Пасмурно, сплошная облачность+16°C66 %763 мм7.8 м/с10 %
    09:00Небольшая облачность+20°C50 %763 мм11.2 м/с17 %
    12:00Небольшая облачность+21°C45 %762 мм10.5 м/с13 %
    15:00Облачно с прояснениями+20°C50 %761 мм8.1 м/с2 %
    18:00Небольшая облачность+18°C56 %761 мм6.6 м/с2 %
    21:00Небольшая облачность+16°C60 %762 мм4.3 м/с7 %
Мы используем cookies
Соглашаюсь